Airfield :
LOGIN :

Register | Disclaimer

   EN    FR    IT 

 










Legend :    VFR   Marginal VFR   IFR   Intensive IFR   Very Intensive IFR
Visi :
Ceiling :
>= 8 km
>= 3000ft
5 to 8 km
1000 to 3000 ft
1500m to 5 km
500 to 1000 ft
800 to 1500m
200 to 500 ft
< 800m
< 200 ft
Symbols :   Thunderstorms  Fog  Heavy snow  Heavy precipitations  Wind > 20 kt
SIGMETs :     Misc.  Thunderstorms  Icing  Turbulence  Mountain Waves  Volcanic Ashes






- Airport Elevation : 238 ft
- IATA code : UAB


LTAG - Incirlik AB

CURRENT METAR :
  • 090520Z 35003KT 9999 FEW035 SCT200 15/15 Q1012 NOSIG

EXPIRED METARs :
  • 090450Z 35003KT 9999 FEW025 SCT080 14/14 Q1012 NOSIG
  • 090420Z 02004KT 9999 FEW040 SCT080 12/12 Q1012 NOSIG
  • 090350Z 36003KT 9999 SCT040 SCT080 10/10 Q1011 NOSIG
  • 090320Z 36003KT 9999 SCT040 BKN080 11/11 Q1011 NOSIG
  • 090250Z 02004KT 9999 SCT040 BKN080 11/11 Q1011 NOSIG

TAF TAF LTAG
Valid from the 09 at 06:00 until the 10 at 06:00 UTC


090440Z 0906/1006 VRB02KT 9999 BKN030
BECMG 0908/0910 18012KT
PROB40
TEMPO 0911/0915 -TSRA FEW020CB BKN030
BECMG 0912/0914 SCT035 SCT100
BECMG 0916/0918 VRB02KT
BECMG 0923/1001 CAVOK



MET'MAP, your aeronautical weather chart ! - Copyright ORBIFLY December 2007 - Disclaimer

ORBIFLY MET'MAP TEAM :

Programming & Development : Alexandra Zaïnal
Concept & original design : Baudouin d'Aumeries
Assistance for programming : Marc-Olivier Méhu
Technical & hardware support : Manuel Goepfert

Contact : metmap@orbifly.com




SOURCES & CREDITS :

   NOAA